Back to Top

Language: 

My Weather Underground Personal Weather Station Historical Data with Graphs...

Delerius Weather Station Historical Data
Daily Summary for March 31, 2017 Units:  Metric    English   Both
« Previous Day
Next Day »
Daily Weekly Monthly Yearly Custom
  High: Low: Average:
Temperature: 17.7 °C 11.3 °C 14.4 °C
Dew Point: 10.1 °C 5.7 °C 8.7 °C
Humidity: 82 % 48 % 70 %
Wind Speed: 27.4 km/h 0 km/h 14 km/h
Wind Gust: 51.5 km/h - -
Wind:- - SSW
Pressure: 1010 hPa 1004.3 hPa -
Precipitation: 0 mm    
Historical Graphs
 
 
Tabular Data for March 31, 2017
Time Temperature Dew Point Pressure Wind Wind Speed Wind Gust Humidity Rainfall Rate (Hourly) solar Conditions
00:04 15.1 °C 9.9 °C 1010 hPa SSE 8 km/h 17.7 km/h 71 % 0 mm 0 W/m2
00:09 15 °C 9.8 °C 1010 hPa SSE 8 km/h 14.5 km/h 71 % 0 mm 0 W/m2
00:14 14.9 °C 9.7 °C 1010 hPa SSE 8 km/h 14.5 km/h 71 % 0 mm 0 W/m2
00:19 14.9 °C 9.9 °C 1010 hPa SSE 8 km/h 14.5 km/h 72 % 0 mm 0 W/m2
00:24 14.8 °C 9.8 °C 1010 hPa SSE 6.4 km/h 12.9 km/h 72 % 0 mm 0 W/m2
00:29 14.8 °C 9.8 °C 1010 hPa SSE 6.4 km/h 12.9 km/h 72 % 0 mm 0 W/m2
00:34 14.7 °C 9.7 °C 1009.7 hPa SSE 6.4 km/h 12.9 km/h 72 % 0 mm 0 W/m2
00:39 14.7 °C 9.9 °C 1009.7 hPa SSE 6.4 km/h 12.9 km/h 73 % 0 mm 0 W/m2
00:44 14.6 °C 9.8 °C 1009.7 hPa SSE 6.4 km/h 12.9 km/h 73 % 0 mm 0 W/m2
00:49 14.6 °C 9.8 °C 1009.4 hPa SSE 6.4 km/h 12.9 km/h 73 % 0 mm 0 W/m2
00:54 14.6 °C 9.8 °C 1009.4 hPa SSE 6.4 km/h 12.9 km/h 73 % 0 mm 0 W/m2
00:59 14.6 °C 10 °C 1009.4 hPa SSE 6.4 km/h 12.9 km/h 74 % 0 mm 0 W/m2
01:04 14.5 °C 9.9 °C 1009 hPa SE 8 km/h 14.5 km/h 74 % 0 mm 0 W/m2
01:09 14.4 °C 9.8 °C 1009 hPa SE 6.4 km/h 14.5 km/h 74 % 0 mm 0 W/m2
01:14 14.3 °C 9.7 °C 1009 hPa SE 6.4 km/h 12.9 km/h 74 % 0 mm 0 W/m2
01:19 14.3 °C 9.9 °C 1009 hPa SE 6.4 km/h 12.9 km/h 75 % 0 mm 0 W/m2
01:24 14.2 °C 9.8 °C 1009 hPa SE 8 km/h 16.1 km/h 75 % 0 mm 0 W/m2
01:29 14.2 °C 9.8 °C 1008.7 hPa SE 9.7 km/h 16.1 km/h 75 % 0 mm 0 W/m2
01:34 14.1 °C 9.9 °C 1008.7 hPa SE 9.7 km/h 14.5 km/h 76 % 0 mm 0 W/m2
01:39 14.1 °C 9.9 °C 1008.7 hPa SE 8 km/h 12.9 km/h 76 % 0 mm 0 W/m2
01:44 14.1 °C 9.9 °C 1008.4 hPa SE 8 km/h 12.9 km/h 76 % 0 mm 0 W/m2
01:49 14.1 °C 9.9 °C 1008.4 hPa SSE 8 km/h 14.5 km/h 76 % 0 mm 0 W/m2
01:54 14 °C 9.8 °C 1008.4 hPa SSE 8 km/h 14.5 km/h 76 % 0 mm 0 W/m2
01:59 14 °C 10.1 °C 1008.4 hPa SSE 8 km/h 14.5 km/h 77 % 0 mm 0 W/m2
02:04 13.9 °C 9.7 °C 1008.4 hPa SE 6.4 km/h 14.5 km/h 76 % 0 mm 0 W/m2
02:09 13.9 °C 9.9 °C 1008.4 hPa SSE 4.8 km/h 11.3 km/h 77 % 0 mm 0 W/m2
02:14 13.9 °C 9.9 °C 1008.4 hPa SSE 4.8 km/h 11.3 km/h 77 % 0 mm 0 W/m2
02:19 13.9 °C 9.9 °C 1008.4 hPa South 3.2 km/h 11.3 km/h 77 % 0 mm 0 W/m2
02:24 13.9 °C 9.9 °C 1008 hPa SSE 1.6 km/h 6.4 km/h 77 % 0 mm 0 W/m2
02:29 13.8 °C 9.8 °C 1008 hPa Calm   3.2 km/h 77 % 0 mm 0 W/m2
02:34 13.8 °C 9.8 °C 1007.7 hPa Calm   3.2 km/h 77 % 0 mm 0 W/m2
02:39 13.7 °C 9.9 °C 1007.7 hPa Calm   3.2 km/h 78 % 0 mm 0 W/m2
02:44 13.6 °C 9.8 °C 1007.7 hPa Calm   3.2 km/h 78 % 0 mm 0 W/m2
02:49 13.6 °C 9.8 °C 1007.7 hPa Calm   3.2 km/h 78 % 0 mm 0 W/m2
02:54 13.6 °C 9.8 °C 1007.7 hPa SSE 1.6 km/h 8 km/h 78 % 0 mm 0 W/m2
03:00 13.6 °C 9.8 °C 1007.3 hPa SSE 1.6 km/h 8 km/h 78 % 0 mm 0 W/m2
03:04 13.6 °C 9.8 °C 1007.3 hPa SSE 3.2 km/h 9.7 km/h 78 % 0 mm 0 W/m2
03:09 13.6 °C 9.8 °C 1007.3 hPa SSE 3.2 km/h 12.9 km/h 78 % 0 mm 0 W/m2
03:14 13.6 °C 9.8 °C 1007.3 hPa South 4.8 km/h 12.9 km/h 78 % 0 mm 0 W/m2
03:19 13.6 °C 9.8 °C 1007.3 hPa South 6.4 km/h 16.1 km/h 78 % 0 mm 0 W/m2
03:24 13.6 °C 9.8 °C 1007.3 hPa South 6.4 km/h 16.1 km/h 78 % 0 mm 0 W/m2
03:29 13.6 °C 9.8 °C 1007 hPa South 8 km/h 16.1 km/h 78 % 0 mm 0 W/m2
03:34 13.6 °C 9.8 °C 1007.3 hPa South 8 km/h 16.1 km/h 78 % 0 mm 0 W/m2
03:39 13.6 °C 9.8 °C 1007 hPa South 8 km/h 12.9 km/h 78 % 0 mm 0 W/m2
03:44 13.6 °C 9.8 °C 1007 hPa SSW 9.7 km/h 17.7 km/h 78 % 0 mm 0 W/m2
03:49 13.6 °C 9.8 °C 1007 hPa SSW 8 km/h 17.7 km/h 78 % 0 mm 0 W/m2
03:54 13.4 °C 9.7 °C 1007 hPa SW 6.4 km/h 11.3 km/h 78 % 0 mm 0 W/m2
03:59 13.4 °C 9.7 °C 1007 hPa SW 6.4 km/h 11.3 km/h 78 % 0 mm 0 W/m2
04:04 13.3 °C 9.6 °C 1007 hPa SSW 4.8 km/h 11.3 km/h 78 % 0 mm 0 W/m2
04:09 13.3 °C 9.7 °C 1006.7 hPa South 3.2 km/h 11.3 km/h 79 % 0 mm 0 W/m2
04:14 13.3 °C 9.7 °C 1006.7 hPa SSE 6.4 km/h 12.9 km/h 79 % 0 mm 0 W/m2
04:19 13.2 °C 9.6 °C 1006.7 hPa SSE 8 km/h 14.5 km/h 79 % 0 mm 0 W/m2
04:24 13.2 °C 9.6 °C 1006.3 hPa SSE 8 km/h 14.5 km/h 79 % 0 mm 0 W/m2
04:27 13.2 °C 9.6 °C 1006.3 hPa SSE 8 km/h 14.5 km/h 79 % 0 mm 0 W/m2
04:32 13.2 °C 9.6 °C 1006.3 hPa SSE 6.4 km/h 12.9 km/h 79 % 0 mm 0 W/m2
04:37 13.2 °C 9.6 °C 1006 hPa SE 6.4 km/h 12.9 km/h 79 % 0 mm 0 W/m2
04:42 13.2 °C 9.6 °C 1006 hPa SE 4.8 km/h 9.7 km/h 79 % 0 mm 0 W/m2
04:47 13.2 °C 9.6 °C 1006 hPa SSE 3.2 km/h 9.7 km/h 79 % 0 mm 0 W/m2
04:52 13.2 °C 9.6 °C 1006 hPa South 3.2 km/h 12.9 km/h 79 % 0 mm 0 W/m2
04:57 13.1 °C 9.7 °C 1006 hPa South 4.8 km/h 12.9 km/h 80 % 0 mm 0 W/m2
05:02 13.1 °C 9.7 °C 1006 hPa South 4.8 km/h 11.3 km/h 80 % 0 mm 0 W/m2
05:07 13.1 °C 9.7 °C 1006 hPa South 4.8 km/h 11.3 km/h 80 % 0 mm 0 W/m2
05:12 13 °C 9.6 °C 1006 hPa South 3.2 km/h 9.7 km/h 80 % 0 mm 0 W/m2
05:17 13 °C 9.6 °C 1006 hPa South 3.2 km/h 9.7 km/h 80 % 0 mm 0 W/m2
05:22 12.9 °C 9.6 °C 1006 hPa South 4.8 km/h 16.1 km/h 80 % 0 mm 0 W/m2
05:27 12.9 °C 9.7 °C 1006 hPa South 8 km/h 16.1 km/h 81 % 0 mm 0 W/m2
05:32 13 °C 9.8 °C 1005.6 hPa South 8 km/h 19.3 km/h 81 % 0 mm 0 W/m2
05:37 13 °C 9.8 °C 1005.6 hPa South 8 km/h 19.3 km/h 81 % 0 mm 0 W/m2
05:42 13 °C 9.6 °C 1005.6 hPa South 6.4 km/h 17.7 km/h 80 % 0 mm 0 W/m2
05:47 13 °C 9.8 °C 1005.6 hPa South 6.4 km/h 12.9 km/h 81 % 0 mm 0 W/m2
05:52 13 °C 9.8 °C 1005.6 hPa South 6.4 km/h 12.9 km/h 81 % 0 mm 0 W/m2
05:57 12.9 °C 9.7 °C 1005.6 hPa South 6.4 km/h 14.5 km/h 81 % 0 mm 0 W/m2
06:02 12.9 °C 9.7 °C 1005.3 hPa South 8 km/h 16.1 km/h 81 % 0 mm 0 W/m2
06:07 12.9 °C 9.7 °C 1005.3 hPa SSW 9.7 km/h 17.7 km/h 81 % 0 mm 0 W/m2
06:12 12.9 °C 9.7 °C 1005.3 hPa SSW 9.7 km/h 17.7 km/h 81 % 0 mm 0 W/m2
06:17 12.9 °C 9.7 °C 1005.3 hPa SSW 11.3 km/h 20.9 km/h 81 % 0 mm 0 W/m2
06:22 12.9 °C 9.7 °C 1005 hPa SSW 11.3 km/h 20.9 km/h 81 % 0 mm 0 W/m2
06:27 12.9 °C 9.7 °C 1005 hPa SSW 9.7 km/h 17.7 km/h 81 % 0 mm 0 W/m2
06:32 12.8 °C 9.8 °C 1005 hPa SSW 9.7 km/h 17.7 km/h 82 % 0 mm 0 W/m2
06:37 12.8 °C 9.8 °C 1005 hPa SSW 11.3 km/h 19.3 km/h 82 % 0 mm 0 W/m2
06:42 12.8 °C 9.8 °C 1005 hPa SSW 11.3 km/h 24.1 km/h 82 % 0 mm 0 W/m2
06:47 12.8 °C 9.8 °C 1005 hPa South 9.7 km/h 24.1 km/h 82 % 0 mm 0 W/m2
06:52 12.8 °C 9.8 °C 1005 hPa South 11.3 km/h 22.5 km/h 82 % 0 mm 5 W/m2
06:57 12.8 °C 9.6 °C 1004.6 hPa South 14.5 km/h 25.7 km/h 81 % 0 mm 7 W/m2
07:02 12.8 °C 9.6 °C 1004.6 hPa South 12.9 km/h 25.7 km/h 81 % 0 mm 11 W/m2
07:07 12.8 °C 9.6 °C 1004.6 hPa South 11.3 km/h 25.7 km/h 81 % 0 mm 18 W/m2
07:12 12.8 °C 9.6 °C 1004.6 hPa South 11.3 km/h 25.7 km/h 81 % 0 mm 23 W/m2
07:17 12.8 °C 9.6 °C 1004.6 hPa South 11.3 km/h 24.1 km/h 81 % 0 mm 33 W/m2
07:22 12.9 °C 9.7 °C 1004.6 hPa South 12.9 km/h 24.1 km/h 81 % 0 mm 40 W/m2
07:27 12.9 °C 9.7 °C 1004.6 hPa South 11.3 km/h 20.9 km/h 81 % 0 mm 39 W/m2
07:32 12.9 °C 9.7 °C 1004.6 hPa South 12.9 km/h 25.7 km/h 81 % 0 mm 37 W/m2
07:37 13 °C 9.6 °C 1004.6 hPa South 16.1 km/h 30.6 km/h 80 % 0 mm 32 W/m2
07:42 13.1 °C 9.7 °C 1004.6 hPa South 16.1 km/h 30.6 km/h 80 % 0 mm 28 W/m2
07:47 13.1 °C 9.7 °C 1004.3 hPa South 14.5 km/h 30.6 km/h 80 % 0 mm 32 W/m2
07:52 13.1 °C 9.7 °C 1004.3 hPa South 14.5 km/h 30.6 km/h 80 % 0 mm 33 W/m2
07:57 13.1 °C 9.7 °C 1004.3 hPa South 14.5 km/h 29 km/h 80 % 0 mm 39 W/m2
08:02 13.1 °C 9.6 °C 1004.6 hPa South 16.1 km/h 33.8 km/h 79 % 0 mm 46 W/m2
08:07 13.1 °C 9.7 °C 1004.6 hPa South 17.7 km/h 33.8 km/h 80 % 0 mm 53 W/m2
08:13 13.1 °C 9.7 °C 1004.3 hPa South 16.1 km/h 29 km/h 80 % 0 mm 54 W/m2
08:18 13.1 °C 9.7 °C 1004.3 hPa South 17.7 km/h 32.2 km/h 80 % 0 mm 49 W/m2
08:23 13.1 °C 9.7 °C 1004.3 hPa South 16.1 km/h 32.2 km/h 80 % 0 mm 51 W/m2
08:28 13.1 °C 9.7 °C 1004.3 hPa South 14.5 km/h 29 km/h 80 % 0 mm 56 W/m2
08:33 13.1 °C 9.7 °C 1004.3 hPa South 16.1 km/h 37 km/h 80 % 0 mm 60 W/m2
08:38 13.1 °C 9.6 °C 1004.3 hPa South 17.7 km/h 37 km/h 79 % 0 mm 63 W/m2
08:43 13.2 °C 9.6 °C 1004.3 hPa South 17.7 km/h 37 km/h 79 % 0 mm 79 W/m2
08:48 13.2 °C 9.6 °C 1004.3 hPa South 17.7 km/h 38.6 km/h 79 % 0 mm 104 W/m2
08:53 13.3 °C 9.7 °C 1004.3 hPa SSW 19.3 km/h 38.6 km/h 79 % 0 mm 276 W/m2
08:58 13.5 °C 9.7 °C 1004.3 hPa South 19.3 km/h 37 km/h 78 % 0 mm 262 W/m2
09:03 13.7 °C 9.7 °C 1004.3 hPa South 17.7 km/h 35.4 km/h 77 % 0 mm 98 W/m2
09:08 13.8 °C 9.7 °C 1004.6 hPa SSW 17.7 km/h 32.2 km/h 76 % 0 mm 403 W/m2
09:13 14.1 °C 9.9 °C 1004.6 hPa SSW 19.3 km/h 32.2 km/h 76 % 0 mm 401 W/m2
09:18 14.3 °C 10.1 °C 1004.3 hPa SSW 17.7 km/h 37 km/h 76 % 0 mm 417 W/m2
09:23 14.3 °C 9.9 °C 1004.3 hPa SSW 20.9 km/h 51.5 km/h 75 % 0 mm 489 W/m2
09:28 14.4 °C 10 °C 1004.3 hPa SSW 22.5 km/h 51.5 km/h 75 % 0 mm 260 W/m2
09:33 14.4 °C 9.8 °C 1004.6 hPa SSW 20.9 km/h 41.8 km/h 74 % 0 mm 211 W/m2
09:38 14.4 °C 10 °C 1004.6 hPa SSW 19.3 km/h 41.8 km/h 75 % 0 mm 227 W/m2
09:43 14.4 °C 9.8 °C 1004.6 hPa SSW 17.7 km/h 38.6 km/h 74 % 0 mm 134 W/m2
09:48 14.3 °C 9.7 °C 1004.6 hPa SSW 19.3 km/h 41.8 km/h 74 % 0 mm 127 W/m2
09:53 14.1 °C 9.6 °C 1004.6 hPa SW 22.5 km/h 41.8 km/h 74 % 0 mm 148 W/m2
09:58 14.1 °C 9.7 °C 1005 hPa SW 20.9 km/h 37 km/h 75 % 0 mm 153 W/m2
10:03 14.1 °C 9.6 °C 1004.6 hPa SSW 22.5 km/h 40.2 km/h 74 % 0 mm 141 W/m2
10:08 13.9 °C 9.3 °C 1004.6 hPa SSW 24.1 km/h 40.2 km/h 74 % 0 mm 250 W/m2
10:13 14.2 °C 9.6 °C 1005 hPa SSW 22.5 km/h 40.2 km/h 74 % 0 mm 775 W/m2
10:18 14.6 °C 10 °C 1004.6 hPa SSW 22.5 km/h 46.7 km/h 74 % 0 mm 190 W/m2
10:23 14.6 °C 9.6 °C 1004.6 hPa SSW 22.5 km/h 46.7 km/h 72 % 0 mm 339 W/m2
10:28 14.6 °C 9.8 °C 1004.6 hPa SSW 24.1 km/h 38.6 km/h 73 % 0 mm 666 W/m2
10:33 14.8 °C 10 °C 1004.6 hPa SSW 22.5 km/h 38.6 km/h 73 % 0 mm 645 W/m2
10:38 15.1 °C 10.1 °C 1005 hPa SW 19.3 km/h 40.2 km/h 72 % 0 mm 248 W/m2
10:43 15.1 °C 9.9 °C 1004.6 hPa SW 19.3 km/h 43.5 km/h 71 % 0 mm 327 W/m2
10:48 15.2 °C 9.8 °C 1004.6 hPa SW 22.5 km/h 43.5 km/h 70 % 0 mm 752 W/m2
10:53 15.4 °C 9.9 °C 1005 hPa SW 22.5 km/h 43.5 km/h 70 % 0 mm 758 W/m2
10:58 15.4 °C 9.7 °C 1005 hPa SW 20.9 km/h 41.8 km/h 69 % 0 mm 162 W/m2
11:03 15 °C 9.3 °C 1005 hPa SW 20.9 km/h 37 km/h 69 % 0 mm 248 W/m2
11:08 14.9 °C 9.5 °C 1005 hPa SW 20.9 km/h 37 km/h 70 % 0 mm 248 W/m2
11:13 15.3 °C 9.4 °C 1005 hPa SW 20.9 km/h 43.5 km/h 68 % 0 mm 682 W/m2
11:18 15.6 °C 9.3 °C 1005 hPa SW 25.7 km/h 46.7 km/h 66 % 0 mm 687 W/m2
11:23 15.7 °C 9.4 °C 1005 hPa SW 27.4 km/h 46.7 km/h 66 % 0 mm 821 W/m2
11:29 16 °C 9.7 °C 1005 hPa SW 22.5 km/h 43.5 km/h 66 % 0 mm 828 W/m2
11:34 16 °C 9.4 °C 1005 hPa SW 20.9 km/h 37 km/h 65 % 0 mm 884 W/m2
11:39 15.6 °C 9.1 °C 1005 hPa SSW 24.1 km/h 46.7 km/h 65 % 0 mm 199 W/m2
11:44 15.3 °C 9 °C 1005 hPa SW 24.1 km/h 46.7 km/h 66 % 0 mm 243 W/m2
11:49 15.2 °C 8.7 °C 1005 hPa SW 22.5 km/h 45.1 km/h 65 % 0 mm 403 W/m2
11:54 15.3 °C 8.8 °C 1005 hPa SW 20.9 km/h 45.1 km/h 65 % 0 mm 283 W/m2
11:59 15.6 °C 9.1 °C 1005 hPa SW 20.9 km/h 41.8 km/h 65 % 0 mm 874 W/m2
12:04 15.8 °C 9 °C 1005.3 hPa SW 22.5 km/h 41.8 km/h 64 % 0 mm 227 W/m2
12:09 15.6 °C 8.6 °C 1005.3 hPa SW 24.1 km/h 38.6 km/h 63 % 0 mm 302 W/m2
12:14 15.7 °C 8.7 °C 1005.3 hPa SW 22.5 km/h 38.6 km/h 63 % 0 mm 299 W/m2
12:19 15.4 °C 8.4 °C 1005.3 hPa SW 22.5 km/h 41.8 km/h 63 % 0 mm 178 W/m2
12:24 15.3 °C 8.8 °C 1005.3 hPa SW 24.1 km/h 41.8 km/h 65 % 0 mm 826 W/m2
12:29 15.9 °C 9.3 °C 1005.3 hPa SW 19.3 km/h 35.4 km/h 65 % 0 mm 809 W/m2
12:34 16.2 °C 9.2 °C 1005.3 hPa SW 17.7 km/h 33.8 km/h 63 % 0 mm 223 W/m2
12:39 16.1 °C 9.1 °C 1005.3 hPa SW 17.7 km/h 32.2 km/h 63 % 0 mm 872 W/m2
12:44 15.9 °C 8.6 °C 1005.3 hPa SW 22.5 km/h 46.7 km/h 62 % 0 mm 276 W/m2
12:49 15.6 °C 8.3 °C 1005.3 hPa SW 24.1 km/h 46.7 km/h 62 % 0 mm 241 W/m2
12:54 15.5 °C 8.9 °C 1005.3 hPa SW 22.5 km/h 43.5 km/h 65 % 0 mm 819 W/m2
12:59 15.7 °C 8.9 °C 1005.3 hPa SW 20.9 km/h 38.6 km/h 64 % 0 mm 796 W/m2
13:04 15.9 °C 8.8 °C 1005.3 hPa SW 20.9 km/h 38.6 km/h 63 % 0 mm 802 W/m2
13:09 16.2 °C 9.4 °C 1005 hPa SW 17.7 km/h 33.8 km/h 64 % 0 mm 786 W/m2
13:14 16.6 °C 9.3 °C 1005 hPa SW 16.1 km/h 33.8 km/h 62 % 0 mm 830 W/m2
13:20 16.7 °C 8.7 °C 1005 hPa SW 20.9 km/h 40.2 km/h 59 % 0 mm 784 W/m2
13:25 16.7 °C 8.7 °C 1005 hPa SW 24.1 km/h 40.2 km/h 59 % 0 mm 777 W/m2
13:30 16.6 °C 8.3 °C 1005 hPa SW 24.1 km/h 43.5 km/h 58 % 0 mm 824 W/m2
13:35 16.8 °C 8.7 °C 1005 hPa SW 22.5 km/h 43.5 km/h 59 % 0 mm 849 W/m2
13:40 17.2 °C 8.6 °C 1005 hPa SW 20.9 km/h 37 km/h 57 % 0 mm 840 W/m2
13:45 17.2 °C 8.3 °C 1005 hPa SW 22.5 km/h 35.4 km/h 56 % 0 mm 812 W/m2
13:50 17 °C 8.2 °C 1005 hPa SW 20.9 km/h 33.8 km/h 56 % 0 mm 758 W/m2
13:55 17.1 °C 7.7 °C 1005 hPa SW 22.5 km/h 40.2 km/h 54 % 0 mm 793 W/m2
14:00 17.2 °C 7.6 °C 1005 hPa SW 24.1 km/h 40.2 km/h 53 % 0 mm 397 W/m2
14:05 17.1 °C 7.7 °C 1005 hPa SW 22.5 km/h 40.2 km/h 54 % 0 mm 858 W/m2
14:10 17.2 °C 7.8 °C 1005 hPa SW 22.5 km/h 38.6 km/h 54 % 0 mm 758 W/m2
14:15 17.3 °C 8.2 °C 1005 hPa SW 19.3 km/h 32.2 km/h 55 % 0 mm 269 W/m2
14:20 17.4 °C 8 °C 1005 hPa SW 17.7 km/h 32.2 km/h 54 % 0 mm 749 W/m2
14:25 17.4 °C 7.7 °C 1005 hPa WSW 19.3 km/h 32.2 km/h 53 % 0 mm 733 W/m2
14:30 17.3 °C 7.6 °C 1005 hPa SW 20.9 km/h 35.4 km/h 53 % 0 mm 744 W/m2
14:35 17.4 °C 8 °C 1005 hPa SW 19.3 km/h 35.4 km/h 54 % 0 mm 744 W/m2
14:40 17.4 °C 7.7 °C 1005 hPa SW 17.7 km/h 35.4 km/h 53 % 0 mm 782 W/m2
14:45 17.4 °C 6.9 °C 1004.6 hPa SW 19.3 km/h 35.4 km/h 50 % 0 mm 803 W/m2
14:50 17.3 °C 7.1 °C 1005 hPa SW 20.9 km/h 38.6 km/h 51 % 0 mm 817 W/m2
14:55 17.6 °C 7.6 °C 1005 hPa SW 19.3 km/h 38.6 km/h 52 % 0 mm 810 W/m2
14:56 17.6 °C 7.3 °C 1005 hPa SW 19.3 km/h 38.6 km/h 51 % 0 mm 810 W/m2
15:01 17.7 °C 6.8 °C 1005 hPa SW 19.3 km/h 43.5 km/h 49 % 0 mm 824 W/m2
15:06 17.5 °C 6.7 °C 1005 hPa SW 20.9 km/h 43.5 km/h 49 % 0 mm 735 W/m2
15:11 17.3 °C 6.5 °C 1005 hPa SW 22.5 km/h 38.6 km/h 49 % 0 mm 705 W/m2
15:16 17.1 °C 6.3 °C 1005 hPa SW 20.9 km/h 38.6 km/h 49 % 0 mm 221 W/m2
15:21 17 °C 5.9 °C 1005 hPa SW 19.3 km/h 38.6 km/h 48 % 0 mm 327 W/m2
15:26 16.8 °C 5.7 °C 1005 hPa SW 20.9 km/h 38.6 km/h 48 % 0 mm 708 W/m2
15:31 17.1 °C 6.6 °C 1005 hPa SW 19.3 km/h 38.6 km/h 50 % 0 mm 737 W/m2
15:36 17.2 °C 6.7 °C 1005 hPa WSW 16.1 km/h 25.7 km/h 50 % 0 mm 751 W/m2
15:41 17.2 °C 6.4 °C 1005 hPa SW 17.7 km/h 32.2 km/h 49 % 0 mm 715 W/m2
15:46 16.9 °C 5.8 °C 1005 hPa SW 20.9 km/h 35.4 km/h 48 % 0 mm 276 W/m2
15:51 16.8 °C 6.3 °C 1005 hPa SW 22.5 km/h 35.4 km/h 50 % 0 mm 696 W/m2
15:56 16.8 °C 6 °C 1005 hPa SW 20.9 km/h 37 km/h 49 % 0 mm 260 W/m2
16:01 16.7 °C 6.5 °C 1004.6 hPa SW 20.9 km/h 37 km/h 51 % 0 mm 682 W/m2
16:06 16.8 °C 6.3 °C 1004.6 hPa SW 20.9 km/h 32.2 km/h 50 % 0 mm 661 W/m2
16:11 16.8 °C 6.6 °C 1005 hPa WSW 19.3 km/h 37 km/h 51 % 0 mm 236 W/m2
16:16 16.6 °C 6.7 °C 1004.6 hPa SW 19.3 km/h 37 km/h 52 % 0 mm 657 W/m2
16:21 16.7 °C 6.5 °C 1004.6 hPa SW 19.3 km/h 41.8 km/h 51 % 0 mm 524 W/m2
16:26 16.6 °C 6.4 °C 1004.6 hPa SSW 22.5 km/h 41.8 km/h 51 % 0 mm 628 W/m2
16:31 16.5 °C 6.9 °C 1004.6 hPa SW 20.9 km/h 40.2 km/h 53 % 0 mm 427 W/m2
16:37 16.4 °C 6.8 °C 1004.6 hPa SW 17.7 km/h 35.4 km/h 53 % 0 mm 257 W/m2
16:42 16.3 °C 6.4 °C 1004.6 hPa SW 19.3 km/h 35.4 km/h 52 % 0 mm 234 W/m2
16:47 16.3 °C 6.7 °C 1004.6 hPa SW 19.3 km/h 32.2 km/h 53 % 0 mm 466 W/m2
16:52 16.6 °C 7 °C 1004.6 hPa SW 17.7 km/h 32.2 km/h 53 % 0 mm 483 W/m2
16:57 16.6 °C 6.7 °C 1004.6 hPa SW 16.1 km/h 25.7 km/h 52 % 0 mm 148 W/m2
17:02 16.3 °C 6.4 °C 1004.6 hPa SW 17.7 km/h 32.2 km/h 52 % 0 mm 123 W/m2
17:07 16.2 °C 6.6 °C 1004.6 hPa WSW 17.7 km/h 32.2 km/h 53 % 0 mm 469 W/m2
17:12 16.3 °C 6.4 °C 1004.6 hPa SW 17.7 km/h 38.6 km/h 52 % 0 mm 441 W/m2
17:17 16.2 °C 6.3 °C 1004.6 hPa SW 19.3 km/h 38.6 km/h 52 % 0 mm 139 W/m2
17:22 15.9 °C 6.3 °C 1004.6 hPa SW 19.3 km/h 32.2 km/h 53 % 0 mm 95 W/m2
17:27 15.6 °C 6.1 °C 1004.6 hPa SW 19.3 km/h 33.8 km/h 53 % 0 mm 113 W/m2
17:32 15.6 °C 6.3 °C 1004.6 hPa SW 16.1 km/h 33.8 km/h 54 % 0 mm 88 W/m2
17:37 15.6 °C 6.1 °C 1004.6 hPa SW 14.5 km/h 32.2 km/h 53 % 0 mm 257 W/m2
17:42 15.6 °C 6.1 °C 1004.6 hPa SW 17.7 km/h 33.8 km/h 53 % 0 mm 102 W/m2
17:47 15.6 °C 6.1 °C 1004.6 hPa SW 19.3 km/h 33.8 km/h 53 % 0 mm 251 W/m2
17:52 15.6 °C 6.1 °C 1004.6 hPa SW 19.3 km/h 37 km/h 53 % 0 mm 229 W/m2
17:57 15.7 °C 6.4 °C 1004.6 hPa SW 17.7 km/h 37 km/h 54 % 0 mm 72 W/m2
18:02 15.5 °C 6.2 °C 1004.6 hPa SW 17.7 km/h 33.8 km/h 54 % 0 mm 202 W/m2
18:07 15.4 °C 6.1 °C 1004.6 hPa SW 17.7 km/h 33.8 km/h 54 % 0 mm 181 W/m2
18:12 15.4 °C 6.4 °C 1004.6 hPa SW 14.5 km/h 29 km/h 55 % 0 mm 163 W/m2
18:17 15.4 °C 6.4 °C 1004.6 hPa SW 16.1 km/h 30.6 km/h 55 % 0 mm 151 W/m2
18:22 15.3 °C 6.3 °C 1005 hPa SW 16.1 km/h 30.6 km/h 55 % 0 mm 40 W/m2
18:27 15.2 °C 6.2 °C 1004.6 hPa SW 16.1 km/h 25.7 km/h 55 % 0 mm 33 W/m2
18:32 15 °C 6.3 °C 1004.6 hPa SW 16.1 km/h 25.7 km/h 56 % 0 mm 44 W/m2
18:37 14.9 °C 6.4 °C 1004.6 hPa SSW 14.5 km/h 25.7 km/h 57 % 0 mm 33 W/m2
18:42 14.8 °C 6.3 °C 1004.6 hPa SSW 11.3 km/h 19.3 km/h 57 % 0 mm 26 W/m2
18:47 14.8 °C 6.6 °C 1005 hPa SSW 11.3 km/h 19.3 km/h 58 % 0 mm 16 W/m2
18:52 14.8 °C 6.6 °C 1005 hPa SSW 11.3 km/h 20.9 km/h 58 % 0 mm 11 W/m2
18:57 14.7 °C 6.8 °C 1005 hPa SSW 11.3 km/h 22.5 km/h 59 % 0 mm 7 W/m2
19:02 14.7 °C 6.8 °C 1005 hPa South 12.9 km/h 24.1 km/h 59 % 0 mm 9 W/m2
19:08 14.7 °C 6.8 °C 1005 hPa SSW 14.5 km/h 24.1 km/h 59 % 0 mm 11 W/m2
19:13 14.7 °C 6.8 °C 1005 hPa SSW 14.5 km/h 22.5 km/h 59 % 0 mm 14 W/m2
19:18 14.6 °C 6.9 °C 1005 hPa South 14.5 km/h 22.5 km/h 60 % 0 mm 19 W/m2
19:23 14.6 °C 6.9 °C 1005 hPa SSW 12.9 km/h 20.9 km/h 60 % 0 mm 16 W/m2
19:28 14.6 °C 6.9 °C 1005 hPa SSW 12.9 km/h 30.6 km/h 60 % 0 mm 9 W/m2
19:33 14.5 °C 7.1 °C 1005 hPa SSW 16.1 km/h 35.4 km/h 61 % 0 mm 0 W/m2
19:38 14.4 °C 6.9 °C 1005 hPa SSW 19.3 km/h 35.4 km/h 61 % 0 mm 0 W/m2
19:43 14.3 °C 6.9 °C 1005 hPa SSW 19.3 km/h 32.2 km/h 61 % 0 mm 0 W/m2
19:48 14.2 °C 7 °C 1005.3 hPa SSW 16.1 km/h 29 km/h 62 % 0 mm 0 W/m2
19:53 14.2 °C 7 °C 1005.3 hPa SSW 14.5 km/h 22.5 km/h 62 % 0 mm 0 W/m2
19:58 14.1 °C 7.2 °C 1005.3 hPa SSW 16.1 km/h 35.4 km/h 63 % 0 mm 0 W/m2
20:03 14.1 °C 7.8 °C 1005.3 hPa SSW 17.7 km/h 35.4 km/h 66 % 0 mm 0 W/m2
20:08 13.9 °C 7.7 °C 1005.3 hPa SW 14.5 km/h 29 km/h 66 % 0 mm 0 W/m2
20:13 13.8 °C 7.8 °C 1005.3 hPa SW 11.3 km/h 20.9 km/h 67 % 0 mm 0 W/m2
20:18 13.8 °C 7.6 °C 1005.6 hPa SSW 9.7 km/h 20.9 km/h 66 % 0 mm 0 W/m2
20:23 13.7 °C 7.4 °C 1005.6 hPa SSW 9.7 km/h 19.3 km/h 66 % 0 mm 0 W/m2
20:28 13.7 °C 7.7 °C 1005.3 hPa SSW 11.3 km/h 22.5 km/h 67 % 0 mm 0 W/m2
20:33 13.7 °C 7.9 °C 1005.6 hPa SSW 12.9 km/h 25.7 km/h 68 % 0 mm 0 W/m2
20:38 13.6 °C 7.8 °C 1005.6 hPa SSW 14.5 km/h 30.6 km/h 68 % 0 mm 0 W/m2
20:43 13.5 °C 7.9 °C 1005.6 hPa SSW 16.1 km/h 30.6 km/h 69 % 0 mm 0 W/m2
20:48 13.4 °C 8.1 °C 1005.6 hPa SSW 14.5 km/h 25.7 km/h 70 % 0 mm 0 W/m2
20:53 13.3 °C 8.2 °C 1005.6 hPa SSW 16.1 km/h 33.8 km/h 71 % 0 mm 0 W/m2
20:58 13.3 °C 8.3 °C 1005.6 hPa SSW 14.5 km/h 33.8 km/h 72 % 0 mm 0 W/m2
21:03 13.2 °C 8.3 °C 1005.6 hPa SW 14.5 km/h 24.1 km/h 72 % 0 mm 0 W/m2
21:08 13.1 °C 8.4 °C 1005.6 hPa SW 16.1 km/h 24.1 km/h 73 % 0 mm 0 W/m2
21:13 13.1 °C 8.4 °C 1005.6 hPa SW 17.7 km/h 29 km/h 73 % 0 mm 0 W/m2
21:18 13.1 °C 8.6 °C 1005.6 hPa SSW 19.3 km/h 33.8 km/h 74 % 0 mm 0 W/m2
21:23 12.8 °C 8.7 °C 1005.6 hPa SSW 17.7 km/h 33.8 km/h 76 % 0 mm 0 W/m2
21:28 12.7 °C 8.8 °C 1005.6 hPa SSW 14.5 km/h 24.1 km/h 77 % 0 mm 0 W/m2
21:34 12.6 °C 8.9 °C 1005.6 hPa SSW 14.5 km/h 24.1 km/h 78 % 0 mm 0 W/m2
21:39 12.5 °C 8.8 °C 1005.6 hPa SSW 12.9 km/h 25.7 km/h 78 % 0 mm 0 W/m2
21:44 12.4 °C 8.7 °C 1005.6 hPa SSW 12.9 km/h 25.7 km/h 78 % 0 mm 0 W/m2
21:49 12.4 °C 8.7 °C 1005.6 hPa SSW 12.9 km/h 25.7 km/h 78 % 0 mm 0 W/m2
21:54 12.3 °C 8.6 °C 1005.6 hPa SSW 11.3 km/h 25.7 km/h 78 % 0 mm 0 W/m2
21:59 12.3 °C 8.8 °C 1005.6 hPa SSW 11.3 km/h 29 km/h 79 % 0 mm 0 W/m2
22:04 12.3 °C 8.8 °C 1005.6 hPa SSW 11.3 km/h 29 km/h 79 % 0 mm 0 W/m2
22:09 12.3 °C 8.8 °C 1005.6 hPa SSW 11.3 km/h 17.7 km/h 79 % 0 mm 0 W/m2
22:14 12.2 °C 8.7 °C 1005.6 hPa SSW 11.3 km/h 17.7 km/h 79 % 0 mm 0 W/m2
22:19 12.2 °C 8.7 °C 1005.6 hPa SSW 9.7 km/h 17.7 km/h 79 % 0 mm 0 W/m2
22:24 12.2 °C 8.7 °C 1005.6 hPa SSW 8 km/h 14.5 km/h 79 % 0 mm 0 W/m2
22:29 12.2 °C 8.7 °C 1005.6 hPa South 8 km/h 14.5 km/h 79 % 0 mm 0 W/m2
22:34 12.1 °C 8.6 °C 1005.6 hPa South 8 km/h 16.1 km/h 79 % 0 mm 0 W/m2
22:39 12.1 °C 8.8 °C 1005.6 hPa SSW 9.7 km/h 22.5 km/h 80 % 0 mm 0 W/m2
22:44 12 °C 8.7 °C 1005.6 hPa SSW 11.3 km/h 22.5 km/h 80 % 0 mm 0 W/m2
22:49 11.9 °C 8.6 °C 1005.6 hPa South 9.7 km/h 17.7 km/h 80 % 0 mm 0 W/m2
22:54 11.9 °C 8.7 °C 1005.6 hPa South 9.7 km/h 17.7 km/h 81 % 0 mm 0 W/m2
22:59 11.8 °C 8.7 °C 1005.6 hPa South 8 km/h 17.7 km/h 81 % 0 mm 0 W/m2
23:04 11.7 °C 8.6 °C 1005.6 hPa South 6.4 km/h 16.1 km/h 81 % 0 mm 0 W/m2
23:09 11.7 °C 8.6 °C 1005.6 hPa SSW 8 km/h 17.7 km/h 81 % 0 mm 0 W/m2
23:14 11.6 °C 8.4 °C 1005.6 hPa South 8 km/h 17.7 km/h 81 % 0 mm 0 W/m2
23:19 11.6 °C 8.4 °C 1005.6 hPa South 9.7 km/h 17.7 km/h 81 % 0 mm 0 W/m2
23:24 11.5 °C 8.3 °C 1005.6 hPa SSW 9.7 km/h 17.7 km/h 81 % 0 mm 0 W/m2
23:29 11.5 °C 8.3 °C 1005.6 hPa SSW 9.7 km/h 17.7 km/h 81 % 0 mm 0 W/m2
23:34 11.4 °C 8.3 °C 1005.6 hPa South 9.7 km/h 17.7 km/h 81 % 0 mm 0 W/m2
23:39 11.4 °C 8.3 °C 1005.6 hPa SSW 9.7 km/h 24.1 km/h 81 % 0 mm 0 W/m2
23:44 11.4 °C 8.3 °C 1005.6 hPa SSW 11.3 km/h 24.1 km/h 81 % 0 mm 0 W/m2
23:49 11.4 °C 8.3 °C 1005.6 hPa SSW 9.7 km/h 17.7 km/h 81 % 0 mm 0 W/m2
23:54 11.4 °C 8.3 °C 1005.6 hPa SSW 6.4 km/h 17.7 km/h 81 % 0 mm 0 W/m2
23:59 11.3 °C 8.2 °C 1005.6 hPa South 6.4 km/h 14.5 km/h 81 % 0 mm 0 W/m2
Delerius-Weather
Compliments of Weather Underground - 2.25 mb

Data updates at regular intervals.